Time,TemperatureF,DewpointF,PressureIn,WindDirection,WindDirectionDegrees,WindSpeedMPH,WindSpeedGustMPH,Humidity,HourlyPrecipIn,Conditions,Clouds,dailyrainin,SoftwareType,DateUTC
2013-10-09 00:12:00,33.0,26.0,29.81,SE,135,1.0,2.0,75,0.00,,,0.08,,2013-10-09 07:12:00,
2013-10-09 00:21:00,33.0,26.0,29.84,ESE,112,2.0,2.0,76,0.00,,,0.08,,2013-10-09 07:21:00,
2013-10-09 00:41:00,33.0,26.0,29.81,SSE,158,2.0,2.0,76,0.00,,,0.08,,2013-10-09 07:41:00,
2013-10-09 00:52:00,33.0,27.0,29.81,SSE,151,2.0,3.0,77,0.00,,,0.08,,2013-10-09 07:52:00,
2013-10-09 01:12:00,34.0,28.0,29.81,SE,124,1.0,2.0,78,0.00,,,0.08,,2013-10-09 08:12:00,
2013-10-09 01:22:00,34.0,28.0,29.81,SSE,158,0.0,2.0,78,0.00,,,0.08,,2013-10-09 08:22:00,
2013-10-09 01:42:00,33.0,27.0,29.81,SSW,202,1.0,1.0,78,0.00,,,0.08,,2013-10-09 08:42:00,
2013-10-09 01:53:00,32.0,26.0,29.81,SSW,202,1.0,2.0,77,0.00,,,0.08,,2013-10-09 08:53:00,
2013-10-09 02:11:00,31.0,25.0,29.84,SSW,202,1.0,2.0,78,0.00,,,0.08,,2013-10-09 09:11:00,
2013-10-09 02:22:00,31.0,25.0,29.81,SSE,158,2.0,3.0,78,0.00,,,0.08,,2013-10-09 09:22:00,
2013-10-09 02:43:00,31.0,25.0,29.84,ESE,122,2.0,2.0,78,0.00,,,0.08,,2013-10-09 09:43:00,
2013-10-09 02:53:00,32.0,26.0,29.81,SSE,158,3.0,5.0,79,0.00,,,0.08,,2013-10-09 09:53:00,
2013-10-09 03:12:00,31.0,25.0,29.84,SSE,158,2.0,2.0,79,0.00,,,0.08,,2013-10-09 10:12:00,
2013-10-09 03:23:00,31.0,25.0,29.84,SSE,158,2.0,3.0,79,0.00,,,0.08,,2013-10-09 10:23:00,
2013-10-09 03:43:00,31.0,25.0,29.84,ESE,113,2.0,2.0,79,0.00,,,0.08,,2013-10-09 10:43:00,
2013-10-09 03:52:00,32.0,27.0,29.84,ESE,114,2.0,2.0,80,0.00,,,0.08,,2013-10-09 10:52:00,
2013-10-09 04:11:00,32.0,27.0,29.84,SE,127,2.0,5.0,80,0.00,,,0.08,,2013-10-09 11:11:00,
2013-10-09 04:22:00,32.0,27.0,29.84,ESE,112,2.0,3.0,80,0.00,,,0.08,,2013-10-09 11:22:00,
2013-10-09 04:41:00,33.0,28.0,29.84,East,91,0.0,1.0,82,0.00,,,0.08,,2013-10-09 11:41:00,
2013-10-09 04:52:00,34.0,29.0,29.84,ENE,68,1.0,2.0,83,0.00,,,0.08,,2013-10-09 11:52:00,
2013-10-09 05:11:00,35.0,32.0,29.84,ENE,68,0.0,2.0,88,0.00,,,0.08,,2013-10-09 12:11:00,
2013-10-09 05:21:00,35.0,32.0,29.84,ENE,68,1.0,3.0,88,0.00,,,0.08,,2013-10-09 12:21:00,
2013-10-09 05:42:00,35.0,31.0,29.84,ENE,68,0.0,2.0,86,0.00,,,0.08,,2013-10-09 12:42:00,
2013-10-09 05:52:00,36.0,32.0,29.84,ENE,75,2.0,2.0,84,0.00,,,0.08,,2013-10-09 12:52:00,
2013-10-09 06:11:00,36.0,31.0,29.84,ENE,68,0.0,1.0,83,0.00,,,0.08,,2013-10-09 13:11:00,
2013-10-09 06:22:00,36.0,31.0,29.84,ENE,68,0.0,0.0,83,0.00,,,0.08,,2013-10-09 13:22:00,
2013-10-09 06:42:00,35.0,32.0,29.87,NNW,338,1.0,2.0,87,0.00,,,0.08,,2013-10-09 13:42:00,
2013-10-09 06:52:00,36.0,34.0,29.87,NNW,342,1.0,3.0,92,0.00,,,0.08,,2013-10-09 13:52:00,
2013-10-09 07:11:00,36.0,34.0,29.87,North,10,2.0,3.0,94,0.00,,,0.08,,2013-10-09 14:11:00,
2013-10-09 07:21:00,36.0,34.0,29.87,ENE,68,1.0,3.0,92,0.00,,,0.08,,2013-10-09 14:21:00,
2013-10-09 07:41:00,36.0,34.0,29.87,ENE,68,1.0,2.0,91,0.00,,,0.08,,2013-10-09 14:41:00,
2013-10-09 07:52:00,36.0,33.0,29.87,SE,133,0.0,2.0,88,0.00,,,0.08,,2013-10-09 14:52:00,
2013-10-09 08:11:00,36.0,32.0,29.87,ENE,68,2.0,3.0,85,0.00,,,0.08,,2013-10-09 15:11:00,
2013-10-09 08:21:00,37.0,32.0,29.87,ENE,68,1.0,2.0,83,0.00,,,0.08,,2013-10-09 15:21:00,
2013-10-09 08:43:00,37.0,33.0,29.90,NNE,30,2.0,6.0,84,0.00,,,0.08,,2013-10-09 15:43:00,
2013-10-09 08:53:00,37.0,33.0,29.90,ENE,69,2.0,6.0,85,0.00,,,0.08,,2013-10-09 15:53:00,
2013-10-09 09:13:00,37.0,32.0,29.90,NE,37,3.0,5.0,83,0.00,,,0.08,,2013-10-09 16:13:00,
2013-10-09 09:24:00,37.0,33.0,29.90,ENE,78,2.0,3.0,85,0.00,,,0.08,,2013-10-09 16:24:00,
2013-10-09 09:42:00,38.0,33.0,29.90,ENE,68,2.0,3.0,83,0.00,,,0.08,,2013-10-09 16:42:00,
2013-10-09 09:52:00,38.0,33.0,29.90,ENE,73,2.0,3.0,83,0.00,,,0.08,,2013-10-09 16:52:00,
2013-10-09 10:12:00,39.0,34.0,29.90,East,92,2.0,3.0,83,0.00,,,0.08,,2013-10-09 17:12:00,
2013-10-09 10:22:00,39.0,34.0,29.90,East,98,5.0,6.0,82,0.00,,,0.08,,2013-10-09 17:22:00,
2013-10-09 10:42:00,40.0,35.0,29.90,SE,127,5.0,6.0,81,0.00,,,0.08,,2013-10-09 17:42:00,
2013-10-09 10:52:00,40.0,34.0,29.90,East,88,3.0,6.0,80,0.00,,,0.08,,2013-10-09 17:52:00,
2013-10-09 11:12:00,40.0,34.0,29.90,East,95,3.0,5.0,79,0.00,,,0.08,,2013-10-09 18:12:00,
2013-10-09 11:21:00,40.0,34.0,29.90,East,97,3.0,6.0,80,0.00,,,0.08,,2013-10-09 18:21:00,
2013-10-09 11:42:00,41.0,34.0,29.87,ESE,103,5.0,7.0,77,0.00,,,0.08,,2013-10-09 18:42:00,
2013-10-09 11:52:00,42.0,35.0,29.90,ENE,78,4.0,6.0,77,0.00,,,0.08,,2013-10-09 18:52:00,
2013-10-09 12:11:00,42.0,35.0,29.90,ENE,68,3.0,6.0,75,0.00,,,0.08,,2013-10-09 19:11:00,
2013-10-09 12:21:00,42.0,34.0,29.90,East,88,4.0,7.0,74,0.00,,,0.08,,2013-10-09 19:21:00,
2013-10-09 12:42:00,42.0,34.0,29.90,East,87,3.0,6.0,72,0.00,,,0.08,,2013-10-09 19:42:00,
2013-10-09 12:52:00,42.0,33.0,29.87,ENE,75,2.0,5.0,71,0.00,,,0.08,,2013-10-09 19:52:00,
2013-10-09 13:11:00,44.0,34.0,29.87,ENE,77,5.0,7.0,67,0.00,,,0.08,,2013-10-09 20:11:00,
2013-10-09 13:22:00,44.0,33.0,29.87,NE,36,5.0,8.0,66,0.00,,,0.08,,2013-10-09 20:22:00,
2013-10-09 13:43:00,44.0,33.0,29.87,North,358,3.0,8.0,64,0.00,,,0.08,,2013-10-09 20:43:00,
2013-10-09 13:52:00,43.0,32.0,29.87,North,354,4.0,8.0,64,0.00,,,0.08,,2013-10-09 20:52:00,
2013-10-09 14:11:00,44.0,32.0,29.87,North,0,5.0,7.0,62,0.00,,,0.08,,2013-10-09 21:11:00,
2013-10-09 14:22:00,44.0,31.0,29.87,NE,42,4.0,6.0,61,0.00,,,0.08,,2013-10-09 21:22:00,
2013-10-09 14:43:00,44.0,32.0,29.87,NE,51,3.0,6.0,63,0.00,,,0.08,,2013-10-09 21:43:00,
2013-10-09 14:53:00,44.0,33.0,29.87,East,80,3.0,5.0,64,0.00,,,0.08,,2013-10-09 21:53:00,
2013-10-09 15:13:00,44.0,33.0,29.87,East,92,3.0,6.0,64,0.00,,,0.08,,2013-10-09 22:13:00,
2013-10-09 15:24:00,44.0,33.0,29.87,East,93,4.0,6.0,65,0.00,,,0.08,,2013-10-09 22:24:00,
2013-10-09 15:42:00,44.0,33.0,29.84,East,91,3.0,6.0,66,0.00,,,0.08,,2013-10-09 22:42:00,
2013-10-09 15:53:00,45.0,34.0,29.84,ENE,71,3.0,6.0,65,0.00,,,0.08,,2013-10-09 22:53:00,
2013-10-09 16:11:00,44.0,33.0,29.84,East,92,3.0,6.0,65,0.00,,,0.08,,2013-10-09 23:11:00,
2013-10-09 16:22:00,44.0,33.0,29.84,ENE,71,3.0,5.0,65,0.00,,,0.08,,2013-10-09 23:22:00,
2013-10-09 16:53:00,44.0,32.0,29.84,ENE,60,2.0,3.0,63,0.00,,,0.07,,2013-10-09 23:53:00,
2013-10-09 17:12:00,44.0,33.0,29.84,ENE,78,2.0,3.0,64,0.00,,,0.07,,2013-10-10 00:12:00,
2013-10-09 17:22:00,44.0,33.0,29.84,East,79,2.0,3.0,64,0.00,,,0.06,,2013-10-10 00:22:00,
2013-10-09 17:42:00,44.0,33.0,29.84,East,83,1.0,3.0,64,0.00,,,0.05,,2013-10-10 00:42:00,
2013-10-09 17:52:00,44.0,33.0,29.84,East,92,2.0,5.0,64,0.00,,,0.03,,2013-10-10 00:52:00,
2013-10-09 18:11:00,44.0,33.0,29.84,ENE,63,2.0,2.0,64,0.00,,,0.01,,2013-10-10 01:11:00,
2013-10-09 18:21:00,43.0,32.0,29.84,NNE,22,2.0,3.0,64,0.00,,,0.01,,2013-10-10 01:21:00,
2013-10-09 18:42:00,43.0,32.0,29.84,NNE,22,2.0,3.0,66,0.00,,,0.01,,2013-10-10 01:42:00,
2013-10-09 18:52:00,42.0,32.0,29.84,NNW,338,2.0,3.0,68,0.00,,,0.01,,2013-10-10 01:52:00,
2013-10-09 19:12:00,42.0,33.0,29.84,NNW,338,2.0,2.0,70,0.00,,,0.00,,2013-10-10 02:12:00,
2013-10-09 19:22:00,42.0,33.0,29.84,North,0,1.0,2.0,70,0.00,,,0.00,,2013-10-10 02:22:00,
2013-10-09 20:12:00,40.0,30.0,29.84,SE,135,0.0,0.0,68,0.00,,,0.00,,2013-10-10 03:12:00,
2013-10-09 20:22:00,40.0,31.0,29.84,ESE,112,0.0,1.0,69,0.00,,,0.00,,2013-10-10 03:22:00,
2013-10-09 20:44:00,39.0,30.0,29.84,ESE,112,1.0,2.0,70,0.00,,,0.00,,2013-10-10 03:44:00,
2013-10-09 20:54:00,38.0,29.0,29.84,ESE,118,2.0,2.0,70,0.00,,,0.00,,2013-10-10 03:54:00,
2013-10-09 21:13:00,37.0,28.0,29.81,SE,135,2.0,2.0,71,0.00,,,0.00,,2013-10-10 04:13:00,
2013-10-09 21:24:00,37.0,29.0,29.81,ESE,123,2.0,3.0,72,0.00,,,0.00,,2013-10-10 04:24:00,
2013-10-09 21:45:00,37.0,29.0,29.81,SSE,158,1.0,2.0,73,0.00,,,0.00,,2013-10-10 04:45:00,
2013-10-09 21:53:00,38.0,30.0,29.81,SSE,158,1.0,2.0,73,0.00,,,0.00,,2013-10-10 04:53:00,
2013-10-09 22:12:00,39.0,31.0,29.81,SSE,158,2.0,2.0,73,0.00,,,0.00,,2013-10-10 05:12:00,
2013-10-09 22:22:00,39.0,31.0,29.84,SE,131,2.0,2.0,73,0.00,,,0.00,,2013-10-10 05:22:00,
2013-10-09 22:43:00,39.0,31.0,29.81,ESE,112,2.0,2.0,74,0.00,,,0.00,,2013-10-10 05:43:00,
2013-10-09 22:52:00,39.0,31.0,29.81,SE,135,2.0,3.0,73,0.00,,,0.00,,2013-10-10 05:52:00,
2013-10-09 23:13:00,39.0,31.0,29.84,SSE,158,0.0,2.0,73,0.00,,,0.00,,2013-10-10 06:13:00,
2013-10-09 23:22:00,40.0,32.0,29.81,SSE,158,1.0,3.0,73,0.00,,,0.00,,2013-10-10 06:22:00,
2013-10-09 23:42:00,40.0,32.0,29.81,SSW,202,1.0,2.0,72,0.00,,,0.00,,2013-10-10 06:42:00,
2013-10-09 23:52:00,40.0,32.0,29.81,SSW,202,1.0,2.0,72,0.00,,,0.00,,2013-10-10 06:52:00,